Time;durP1;ratioP1;P1;durP2;ratioP2;P2;SDS_P1;SDS_P2;PMS_P1;PMS_P2;Temp;Humidity;BMP_temperature;BMP_pressure;BME280_temperature;BME280_humidity;BME280_pressure;Samples;Min_cycle;Max_cycle;Signal;HPM_P1;HPM_P2
2023/12/20 00:01:41;;;;;;;12.53;2.80;;;4.80;99.90;;;;;;5008606;28;20216;-76
2023/12/20 00:04:07;;;;;;;15.00;2.50;;;4.80;99.90;;;;;;5002507;28;20227;-76
2023/12/20 00:06:34;;;;;;;11.00;2.23;;;4.70;99.90;;;;;;5007364;28;20238;-77
2023/12/20 00:09:01;;;;;;;14.43;2.73;;;4.70;99.90;;;;;;5001348;28;20235;-77
2023/12/20 00:11:27;;;;;;;12.17;3.00;;;4.70;99.90;;;;;;5003552;28;20232;-76
2023/12/20 00:13:54;;;;;;;13.07;3.23;;;4.60;99.90;;;;;;5005037;28;20765;-77
2023/12/20 00:16:21;;;;;;;10.50;2.33;;;4.60;99.90;;;;;;5003746;28;20249;-77
2023/12/20 00:18:49;;;;;;;12.60;2.60;;;4.60;99.90;;;;;;5000994;28;20237;-76
2023/12/20 00:21:15;;;;;;;12.70;2.13;;;4.60;99.90;;;;;;5035647;28;20238;-77
2023/12/20 00:23:42;;;;;;;14.47;2.73;;;4.50;99.90;;;;;;5020266;28;20237;-78
2023/12/20 00:26:09;;;;;;;11.03;2.47;;;4.50;99.90;;;;;;5005405;28;20268;-76
2023/12/20 00:28:36;;;;;;;8.53;2.53;;;4.40;99.90;;;;;;5006685;28;20238;-75
2023/12/20 00:31:04;;;;;;;10.47;2.80;;;4.40;99.90;;;;;;5007874;28;20224;-75
2023/12/20 00:33:31;;;;;;;12.33;2.67;;;4.40;99.90;;;;;;4998118;28;20235;-76
2023/12/20 00:35:59;;;;;;;13.80;3.10;;;4.40;99.90;;;;;;5003749;28;20232;-76
2023/12/20 00:38:26;;;;;;;14.17;2.30;;;4.30;99.90;;;;;;5005795;28;20218;-76
2023/12/20 00:40:53;;;;;;;12.17;2.83;;;4.30;99.90;;;;;;5037905;28;20710;-76
2023/12/20 00:43:20;;;;;;;14.27;2.20;;;4.30;99.90;;;;;;5008429;28;20229;-76
2023/12/20 00:45:47;;;;;;;16.50;2.70;;;4.30;99.90;;;;;;5001825;28;20253;-76
2023/12/20 00:48:14;;;;;;;13.00;2.60;;;4.30;99.90;;;;;;5036167;28;20223;-76
2023/12/20 00:50:40;;;;;;;13.57;2.70;;;4.30;99.90;;;;;;5003373;28;20273;-76
2023/12/20 00:53:08;;;;;;;12.90;2.10;;;4.30;99.90;;;;;;5008450;28;20240;-76
2023/12/20 00:55:35;;;;;;;12.50;2.33;;;4.40;99.90;;;;;;4997839;28;20231;-76
2023/12/20 00:58:02;;;;;;;11.80;2.20;;;4.40;99.90;;;;;;5003506;28;20224;-76
2023/12/20 01:00:29;;;;;;;10.93;2.37;;;4.40;99.90;;;;;;5004512;28;20998;-76
2023/12/20 01:02:55;;;;;;;12.10;2.83;;;4.40;99.90;;;;;;4996271;28;20270;-76
2023/12/20 01:05:23;;;;;;;8.60;2.33;;;4.50;99.90;;;;;;5004478;28;20219;-76
2023/12/20 01:07:50;;;;;;;12.13;2.63;;;4.50;99.90;;;;;;5006547;28;20220;-76
2023/12/20 01:10:18;;;;;;;13.63;2.50;;;4.60;99.90;;;;;;5007033;28;20228;-77
2023/12/20 01:12:45;;;;;;;10.93;2.10;;;4.60;99.90;;;;;;5005314;28;20234;-76
2023/12/20 01:15:12;;;;;;;6.80;2.23;;;4.70;99.90;;;;;;5002795;28;20227;-76
2023/12/20 01:17:39;;;;;;;11.80;2.60;;;4.70;99.90;;;;;;5006337;28;20321;-76
2023/12/20 01:20:07;;;;;;;11.83;2.10;;;4.80;99.90;;;;;;5006977;28;20231;-76
2023/12/20 01:22:35;;;;;;;13.40;2.80;;;4.80;99.90;;;;;;5004159;28;20240;-76
2023/12/20 01:25:03;;;;;;;14.30;2.70;;;4.80;99.90;;;;;;5040753;28;20251;-76
2023/12/20 01:27:31;;;;;;;11.57;2.33;;;4.90;99.90;;;;;;5005743;28;20261;-76
2023/12/20 01:29:57;;;;;;;12.37;2.20;;;4.90;99.90;;;;;;5020591;28;20801;-76
2023/12/20 01:32:24;;;;;;;12.07;2.30;;;4.90;99.90;;;;;;5004216;28;20240;-76
2023/12/20 01:34:51;;;;;;;11.93;2.30;;;4.90;99.90;;;;;;5001293;28;20242;-77
2023/12/20 01:37:17;;;;;;;14.37;2.37;;;4.90;99.90;;;;;;5001175;28;20964;-77
2023/12/20 01:39:44;;;;;;;11.60;2.33;;;4.80;99.90;;;;;;5005384;28;20234;-76
2023/12/20 01:42:11;;;;;;;11.13;2.73;;;4.80;99.90;;;;;;5007480;28;20597;-76
2023/12/20 01:44:39;;;;;;;10.53;2.60;;;4.70;99.90;;;;;;5004164;28;20228;-76
2023/12/20 01:47:06;;;;;;;17.10;2.90;;;4.70;99.90;;;;;;5003147;28;20228;-76
2023/12/20 01:49:32;;;;;;;14.63;3.00;;;4.60;99.90;;;;;;5003897;28;20236;-76
2023/12/20 01:51:59;;;;;;;14.33;2.80;;;4.60;99.90;;;;;;5005259;28;20227;-76
2023/12/20 01:54:26;;;;;;;14.07;2.53;;;4.50;99.90;;;;;;5000689;28;20224;-76
2023/12/20 01:56:53;;;;;;;7.27;2.03;;;4.50;99.90;;;;;;5002464;28;20648;-76
2023/12/20 01:59:21;;;;;;;17.53;2.43;;;4.40;99.90;;;;;;5006360;28;20223;-76
2023/12/20 02:01:50;;;;;;;7.17;2.50;;;4.40;99.90;;;;;;5005531;28;20219;-76
2023/12/20 02:04:17;;;;;;;10.67;2.50;;;4.40;99.90;;;;;;5024943;28;20226;-76
2023/12/20 02:06:47;;;;;;;11.37;2.37;;;4.30;99.90;;;;;;5009941;28;20224;-75
2023/12/20 02:09:14;;;;;;;17.93;2.37;;;4.40;99.90;;;;;;5003815;28;20227;-75
2023/12/20 02:11:41;;;;;;;8.73;2.10;;;4.40;99.90;;;;;;5001798;28;20790;-75
2023/12/20 02:14:08;;;;;;;13.80;2.80;;;4.40;99.90;;;;;;5007024;28;20867;-75
2023/12/20 02:16:35;;;;;;;16.27;2.90;;;4.50;99.90;;;;;;5003486;28;20274;-76
2023/12/20 02:19:05;;;;;;;13.37;2.37;;;4.50;99.90;;;;;;5003195;28;20256;-75
2023/12/20 02:21:35;;;;;;;15.67;2.60;;;4.50;99.90;;;;;;4994037;28;20278;-75
2023/12/20 02:24:02;;;;;;;12.27;2.87;;;4.50;99.90;;;;;;5000345;28;20234;-76
2023/12/20 02:26:29;;;;;;;11.73;2.30;;;4.60;99.90;;;;;;4994504;28;20848;-75
2023/12/20 02:28:56;;;;;;;10.83;2.63;;;4.60;99.90;;;;;;4996368;28;20991;-75
2023/12/20 02:31:24;;;;;;;16.83;2.83;;;4.60;99.90;;;;;;5004593;28;20219;-75
2023/12/20 02:33:51;;;;;;;13.43;2.53;;;4.60;99.90;;;;;;5010811;28;20788;-75
2023/12/20 02:36:17;;;;;;;12.63;2.30;;;4.60;99.90;;;;;;5002755;28;20234;-75
2023/12/20 02:38:46;;;;;;;9.50;2.07;;;4.60;99.90;;;;;;5006635;28;20219;-75
2023/12/20 02:41:15;;;;;;;8.20;2.10;;;4.50;99.90;;;;;;5001582;28;20223;-75
2023/12/20 02:43:42;;;;;;;11.83;2.63;;;4.50;99.90;;;;;;5017322;28;20232;-75
2023/12/20 02:46:09;;;;;;;14.27;2.10;;;4.50;99.90;;;;;;5003185;28;20236;-76
2023/12/20 02:48:36;;;;;;;14.97;3.30;;;4.60;99.90;;;;;;5001122;28;20227;-76
2023/12/20 02:51:03;;;;;;;9.07;2.10;;;4.60;99.90;;;;;;5005537;28;20227;-75
2023/12/20 02:53:30;;;;;;;6.50;2.10;;;4.60;99.90;;;;;;5003332;28;20228;-75
2023/12/20 02:55:58;;;;;;;10.57;2.40;;;4.60;99.90;;;;;;5017410;28;20657;-75
2023/12/20 02:58:25;;;;;;;9.17;2.20;;;4.60;99.90;;;;;;5001976;28;20310;-75
2023/12/20 03:00:52;;;;;;;9.43;2.23;;;4.70;99.90;;;;;;5005867;28;20226;-75
2023/12/20 03:03:18;;;;;;;10.37;2.07;;;4.70;99.90;;;;;;4998120;28;20216;-76
2023/12/20 03:05:46;;;;;;;11.23;2.40;;;4.70;99.90;;;;;;5015158;23;20214;-78
2023/12/20 03:08:13;;;;;;;11.73;2.63;;;4.70;99.90;;;;;;4994557;28;20218;-79
2023/12/20 03:10:40;;;;;;;9.97;2.00;;;4.80;99.90;;;;;;4990649;28;20708;-78
2023/12/20 03:13:08;;;;;;;13.67;2.33;;;4.80;99.90;;;;;;5020291;28;20257;-78
2023/12/20 03:15:35;;;;;;;9.57;2.30;;;4.80;99.90;;;;;;5008646;28;20225;-76
2023/12/20 03:18:02;;;;;;;9.50;2.63;;;4.80;99.90;;;;;;5008936;28;20323;-78
2023/12/20 03:20:31;;;;;;;11.27;2.37;;;4.90;99.90;;;;;;4996913;28;20757;-77
2023/12/20 03:22:57;;;;;;;15.30;3.10;;;4.90;99.90;;;;;;5013801;28;20222;-78
2023/12/20 03:25:24;;;;;;;10.53;2.40;;;4.90;99.90;;;;;;5005180;28;20229;-79
2023/12/20 03:27:51;;;;;;;8.67;2.30;;;4.90;99.90;;;;;;5004805;28;20218;-77
2023/12/20 03:30:19;;;;;;;10.10;2.33;;;5.00;99.90;;;;;;5007261;28;20267;-77
2023/12/20 03:32:46;;;;;;;10.80;2.10;;;4.90;99.90;;;;;;5004411;28;20226;-77
2023/12/20 03:35:13;;;;;;;13.23;2.27;;;4.90;99.90;;;;;;5007591;28;20315;-79
2023/12/20 03:37:39;;;;;;;11.90;2.73;;;4.90;99.90;;;;;;5000862;28;20239;-79
2023/12/20 03:40:07;;;;;;;10.97;2.73;;;5.00;99.90;;;;;;5025086;28;20222;-77
2023/12/20 03:42:34;;;;;;;8.20;2.20;;;5.00;99.90;;;;;;5003249;28;20229;-79
2023/12/20 03:45:00;;;;;;;11.63;2.50;;;5.00;99.90;;;;;;5025961;28;20224;-78
2023/12/20 03:47:28;;;;;;;12.77;2.87;;;5.00;99.90;;;;;;5001706;28;20236;-77
2023/12/20 03:49:55;;;;;;;9.53;2.33;;;5.00;99.90;;;;;;5030321;28;20236;-78
2023/12/20 03:52:22;;;;;;;8.93;2.33;;;5.00;99.90;;;;;;5021841;28;20256;-77
2023/12/20 03:54:49;;;;;;;7.10;2.17;;;5.00;99.90;;;;;;5005344;28;20309;-77
2023/12/20 03:57:15;;;;;;;9.30;2.43;;;4.90;99.90;;;;;;5001448;28;20227;-76
2023/12/20 03:59:42;;;;;;;9.50;2.70;;;5.00;99.90;;;;;;5008796;28;20231;-77
2023/12/20 04:02:09;;;;;;;13.03;2.50;;;4.90;99.90;;;;;;5005111;28;20225;-76
2023/12/20 04:04:37;;;;;;;17.53;2.57;;;5.00;99.90;;;;;;5012110;28;20226;-78
2023/12/20 04:07:04;;;;;;;9.47;1.97;;;4.90;99.90;;;;;;5000956;28;20235;-77
2023/12/20 04:09:30;;;;;;;9.47;2.07;;;5.00;99.90;;;;;;4994147;28;20956;-77
2023/12/20 04:11:57;;;;;;;10.63;2.33;;;4.90;99.90;;;;;;5004200;28;20296;-76
2023/12/20 04:14:24;;;;;;;9.57;2.27;;;4.90;99.90;;;;;;4999980;28;20241;-76
2023/12/20 04:16:51;;;;;;;10.33;2.20;;;4.90;99.90;;;;;;4999372;28;20238;-78
2023/12/20 04:19:18;;;;;;;12.83;1.77;;;4.90;99.90;;;;;;4993658;28;20829;-78
2023/12/20 04:21:47;;;;;;;6.40;2.10;;;4.90;99.90;;;;;;5003139;28;20304;-77
2023/12/20 04:24:14;;;;;;;7.17;2.00;;;4.90;99.90;;;;;;4995866;28;20228;-77
2023/12/20 04:26:41;;;;;;;11.13;2.43;;;4.90;99.90;;;;;;5000763;28;20296;-78
2023/12/20 04:29:08;;;;;;;9.13;2.43;;;4.90;99.90;;;;;;5004025;28;20254;-78
2023/12/20 04:31:34;;;;;;;12.00;2.60;;;4.90;99.90;;;;;;5008997;28;20333;-78
2023/12/20 04:34:01;;;;;;;10.43;2.70;;;4.80;99.90;;;;;;5002717;28;20244;-78
2023/12/20 04:36:29;;;;;;;11.77;2.53;;;4.90;99.90;;;;;;4996499;28;20323;-78
2023/12/20 04:38:59;;;;;;;11.30;2.37;;;4.90;99.90;;;;;;5006414;28;20235;-79
2023/12/20 04:41:27;;;;;;;9.73;2.00;;;4.80;99.90;;;;;;5001057;28;20227;-78
2023/12/20 04:43:54;;;;;;;9.37;2.43;;;4.80;99.90;;;;;;4999743;28;20314;-78
2023/12/20 04:46:21;;;;;;;11.30;2.50;;;4.80;99.90;;;;;;4999754;28;20247;-77
2023/12/20 04:48:48;;;;;;;15.73;2.63;;;4.80;99.90;;;;;;4999952;28;20227;-77
2023/12/20 04:51:14;;;;;;;10.57;2.13;;;4.90;99.90;;;;;;4989915;28;20229;-77
2023/12/20 04:53:41;;;;;;;9.97;2.10;;;4.80;99.90;;;;;;5004351;28;20245;-78
2023/12/20 04:56:09;;;;;;;8.17;2.27;;;4.80;99.90;;;;;;4998849;28;20287;-77
2023/12/20 04:58:36;;;;;;;9.63;2.50;;;4.80;99.90;;;;;;5008696;28;20927;-76
2023/12/20 05:01:03;;;;;;;15.57;2.53;;;4.80;99.90;;;;;;5010691;28;20314;-77
2023/12/20 05:03:30;;;;;;;8.73;2.40;;;4.80;99.90;;;;;;5002384;28;20221;-78
2023/12/20 05:05:57;;;;;;;12.80;2.47;;;4.80;99.90;;;;;;5003345;28;20247;-78
2023/12/20 05:08:23;;;;;;;12.10;2.57;;;4.90;99.90;;;;;;5003833;28;20233;-77
2023/12/20 05:10:50;;;;;;;11.83;2.37;;;4.90;99.90;;;;;;4988222;28;20229;-77
2023/12/20 05:13:18;;;;;;;11.53;2.80;;;4.90;99.90;;;;;;4986802;28;20251;-77
2023/12/20 05:15:45;;;;;;;11.63;3.43;;;4.90;99.90;;;;;;5001352;28;20228;-77
2023/12/20 05:18:12;;;;;;;8.13;2.37;;;4.90;99.90;;;;;;4990869;28;20238;-77
2023/12/20 05:20:38;;;;;;;7.97;2.63;;;4.90;99.90;;;;;;4994088;28;20229;-77
2023/12/20 05:23:05;;;;;;;10.97;2.90;;;4.90;99.90;;;;;;5000832;28;20856;-76
2023/12/20 05:25:32;;;;;;;8.83;2.53;;;4.90;99.90;;;;;;4986439;28;20237;-77
2023/12/20 05:27:59;;;;;;;10.33;2.93;;;4.90;99.90;;;;;;4980861;28;20315;-77
2023/12/20 05:30:27;;;;;;;13.10;2.90;;;4.90;99.90;;;;;;4983942;28;20329;-77
2023/12/20 05:32:53;;;;;;;27.10;3.77;;;4.90;99.90;;;;;;4989418;28;20237;-77
2023/12/20 05:35:22;;;;;;;14.43;2.90;;;4.90;99.90;;;;;;4993881;28;20389;-78
2023/12/20 05:37:48;;;;;;;15.77;3.37;;;4.90;99.90;;;;;;5002624;28;20225;-81
2023/12/20 05:40:15;;;;;;;14.30;2.80;;;4.90;99.90;;;;;;5005400;28;20431;-80
2023/12/20 05:42:43;;;;;;;14.00;3.47;;;5.00;99.90;;;;;;5007711;28;20295;-80
2023/12/20 05:45:10;;;;;;;16.13;2.90;;;5.00;99.90;;;;;;4996293;28;20229;-79
2023/12/20 05:47:38;;;;;;;18.47;3.43;;;5.00;99.90;;;;;;4987494;28;20773;-79
2023/12/20 05:50:06;;;;;;;17.40;3.00;;;5.00;99.90;;;;;;5002771;28;20222;-79
2023/12/20 05:52:32;;;;;;;25.33;3.50;;;5.10;99.90;;;;;;4985938;28;20737;-79
2023/12/20 05:55:01;;;;;;;16.10;3.17;;;5.00;99.90;;;;;;4986338;28;20245;-79
2023/12/20 05:57:27;;;;;;;15.70;3.40;;;5.00;99.90;;;;;;4986317;28;20278;-80
2023/12/20 05:59:54;;;;;;;12.30;2.57;;;5.00;99.90;;;;;;4988515;28;20232;-79
2023/12/20 06:02:21;;;;;;;16.13;3.30;;;5.00;99.90;;;;;;4986302;28;20763;-79
2023/12/20 06:04:49;;;;;;;12.37;3.77;;;5.10;99.90;;;;;;5003843;28;20264;-79
2023/12/20 06:07:17;;;;;;;11.03;2.97;;;5.00;99.90;;;;;;4988793;28;20250;-80
2023/12/20 06:09:44;;;;;;;7.77;2.07;;;5.00;99.90;;;;;;4989515;28;20228;-80
2023/12/20 06:12:11;;;;;;;14.67;3.13;;;5.00;99.90;;;;;;4988412;28;20229;-79
2023/12/20 06:14:38;;;;;;;15.07;2.70;;;5.00;99.90;;;;;;4986903;28;20236;-80
2023/12/20 06:17:04;;;;;;;7.07;2.50;;;5.00;99.90;;;;;;5000989;28;20260;-79
2023/12/20 06:19:31;;;;;;;16.23;3.47;;;5.00;99.90;;;;;;4998919;28;20223;-81
2023/12/20 06:21:59;;;;;;;11.77;2.60;;;5.00;99.90;;;;;;4999906;28;20229;-82
2023/12/20 06:24:27;;;;;;;13.20;2.77;;;5.00;99.90;;;;;;5019723;28;20260;-78
2023/12/20 06:26:54;;;;;;;12.07;3.67;;;5.00;99.90;;;;;;5007418;28;20229;-80
2023/12/20 06:29:21;;;;;;;11.43;2.87;;;5.00;99.90;;;;;;5004637;28;20294;-79
2023/12/20 06:31:48;;;;;;;14.00;3.13;;;5.00;99.90;;;;;;5005735;28;20232;-79
2023/12/20 06:34:15;;;;;;;14.50;3.13;;;5.00;99.90;;;;;;5004936;28;20224;-81
2023/12/20 06:36:41;;;;;;;10.63;2.47;;;5.00;99.90;;;;;;5021882;28;20224;-78
2023/12/20 06:39:12;;;;;;;12.27;3.03;;;5.00;99.90;;;;;;5005691;28;20646;-77
2023/12/20 06:41:39;;;;;;;10.60;3.40;;;5.00;99.90;;;;;;4996240;28;20737;-77
2023/12/20 06:44:05;;;;;;;13.23;3.20;;;5.10;99.90;;;;;;5000647;28;21072;-78
2023/12/20 06:46:32;;;;;;;11.67;3.37;;;5.10;99.90;;;;;;5007361;28;20237;-78
2023/12/20 06:48:59;;;;;;;19.77;3.37;;;5.10;99.90;;;;;;5000898;28;20235;-78
2023/12/20 06:51:26;;;;;;;13.67;2.93;;;5.10;99.90;;;;;;5001766;28;20708;-78
2023/12/20 06:53:53;;;;;;;12.83;2.90;;;5.10;99.90;;;;;;5006139;28;20272;-75
2023/12/20 06:56:22;;;;;;;14.77;3.20;;;5.10;99.90;;;;;;5008356;28;20232;-77
2023/12/20 06:58:49;;;;;;;12.67;2.80;;;5.10;99.90;;;;;;5012671;28;20316;-78
2023/12/20 07:01:17;;;;;;;7.63;2.40;;;5.10;99.90;;;;;;4992032;28;20334;-78
2023/12/20 07:03:44;;;;;;;12.80;2.83;;;5.10;99.90;;;;;;4999354;28;20252;-77
2023/12/20 07:06:10;;;;;;;11.97;2.80;;;5.20;99.90;;;;;;5023980;28;20224;-78
2023/12/20 07:08:37;;;;;;;11.53;3.20;;;5.10;99.90;;;;;;5006244;28;20246;-78
2023/12/20 07:11:04;;;;;;;11.90;2.70;;;5.10;99.90;;;;;;5011132;28;20222;-78
2023/12/20 07:13:32;;;;;;;9.20;2.87;;;5.10;99.90;;;;;;5008416;28;20225;-78
2023/12/20 07:15:59;;;;;;;10.83;2.80;;;5.20;99.90;;;;;;5012073;28;20239;-78
2023/12/20 07:18:26;;;;;;;10.17;2.70;;;5.10;99.90;;;;;;5004072;28;20233;-78
2023/12/20 07:20:54;;;;;;;8.80;2.83;;;5.10;99.90;;;;;;5007262;28;20225;-77
2023/12/20 07:23:21;;;;;;;11.50;2.80;;;5.10;99.90;;;;;;5005816;28;20654;-78
2023/12/20 07:25:48;;;;;;;13.37;3.47;;;5.10;99.90;;;;;;4997695;28;20243;-78
2023/12/20 07:28:14;;;;;;;15.00;3.37;;;5.10;99.90;;;;;;5006233;28;20573;-77
2023/12/20 07:30:42;;;;;;;13.73;3.57;;;5.20;99.90;;;;;;5009950;28;20226;-77
2023/12/20 07:33:10;;;;;;;9.23;3.13;;;5.10;99.90;;;;;;5005086;28;20238;-77
2023/12/20 07:35:36;;;;;;;12.60;3.20;;;5.20;99.90;;;;;;5008764;28;20711;-78
2023/12/20 07:38:03;;;;;;;14.97;3.83;;;5.10;99.90;;;;;;5008298;28;20256;-76
2023/12/20 07:40:30;;;;;;;11.80;2.80;;;5.10;99.90;;;;;;5010949;28;20232;-78
2023/12/20 07:42:58;;;;;;;14.13;3.50;;;5.20;99.90;;;;;;5002736;28;20729;-78
2023/12/20 07:45:24;;;;;;;10.83;3.00;;;5.20;99.90;;;;;;5004453;28;20264;-78
2023/12/20 07:47:53;;;;;;;18.27;3.47;;;5.20;99.90;;;;;;5006977;28;20233;-78
2023/12/20 07:50:20;;;;;;;15.87;3.10;;;5.20;99.90;;;;;;5010757;28;20226;-77
2023/12/20 07:52:46;;;;;;;23.80;4.40;;;5.20;99.90;;;;;;5003382;28;20231;-78
2023/12/20 07:55:13;;;;;;;12.17;3.23;;;5.20;99.90;;;;;;5008271;28;20236;-77
2023/12/20 07:57:40;;;;;;;14.80;3.37;;;5.20;99.90;;;;;;5007048;28;20248;-76
2023/12/20 08:00:07;;;;;;;14.07;3.60;;;5.20;99.90;;;;;;5020311;28;20221;-77
2023/12/20 08:02:34;;;;;;;15.93;4.13;;;5.20;99.90;;;;;;5012563;28;20222;-78
2023/12/20 08:05:02;;;;;;;12.57;3.43;;;5.20;99.90;;;;;;5008586;28;20227;-77
2023/12/20 08:07:29;;;;;;;16.47;3.57;;;5.20;99.90;;;;;;5009433;28;20291;-78
2023/12/20 08:09:56;;;;;;;15.73;3.00;;;5.30;99.90;;;;;;5011147;28;20283;-78
2023/12/20 08:12:23;;;;;;;10.60;2.83;;;5.30;99.90;;;;;;5012624;28;20226;-78
2023/12/20 08:14:50;;;;;;;12.23;3.23;;;5.30;99.90;;;;;;5014915;28;20235;-78
2023/12/20 08:17:18;;;;;;;14.07;3.20;;;5.30;99.90;;;;;;5006711;28;20247;-78
2023/12/20 08:19:45;;;;;;;14.17;3.70;;;5.30;99.90;;;;;;5013714;28;20254;-78
2023/12/20 08:22:13;;;;;;;10.93;3.17;;;5.30;99.90;;;;;;5014576;28;20326;-78
2023/12/20 08:24:40;;;;;;;16.60;3.60;;;5.30;99.90;;;;;;5012752;28;20225;-78
2023/12/20 08:27:06;;;;;;;12.93;3.10;;;5.30;99.90;;;;;;5010180;28;20236;-78
2023/12/20 08:29:33;;;;;;;13.10;3.20;;;5.40;99.90;;;;;;5009934;28;21275;-77
2023/12/20 08:32:00;;;;;;;19.70;4.27;;;5.40;99.90;;;;;;5015374;28;20229;-78
2023/12/20 08:34:27;;;;;;;16.10;4.07;;;5.40;99.90;;;;;;5011242;28;20236;-76
2023/12/20 08:36:54;;;;;;;13.57;3.47;;;5.40;99.90;;;;;;5027875;28;20232;-78
2023/12/20 08:39:22;;;;;;;14.87;3.27;;;5.40;99.90;;;;;;5012760;28;20234;-78
2023/12/20 08:41:49;;;;;;;10.27;3.23;;;5.40;99.90;;;;;;5013425;28;20228;-78
2023/12/20 08:44:15;;;;;;;11.87;3.53;;;5.40;99.90;;;;;;5013966;28;20225;-77
2023/12/20 08:46:42;;;;;;;11.77;2.60;;;5.50;99.90;;;;;;5015219;28;20230;-78
2023/12/20 08:49:09;;;;;;;13.73;3.33;;;5.50;99.90;;;;;;5014087;28;20228;-78
2023/12/20 08:51:39;;;;;;;10.70;3.17;;;5.50;99.90;;;;;;5010207;28;20258;-78
2023/12/20 08:54:07;;;;;;;12.57;3.47;;;5.50;99.90;;;;;;5011134;28;20289;-77
2023/12/20 08:56:35;;;;;;;15.23;3.10;;;5.60;99.90;;;;;;5011171;28;20228;-77
2023/12/20 08:59:02;;;;;;;15.17;3.63;;;5.60;99.90;;;;;;5006414;28;20225;-78
2023/12/20 09:01:29;;;;;;;17.80;3.33;;;5.60;99.90;;;;;;5017686;28;21010;-78
2023/12/20 09:03:55;;;;;;;20.57;4.47;;;5.70;99.90;;;;;;5007790;28;20232;-78
2023/12/20 09:06:22;;;;;;;13.97;3.57;;;5.70;99.90;;;;;;5022192;23;20229;-78
2023/12/20 09:08:49;;;;;;;11.57;3.17;;;5.70;99.90;;;;;;4998409;28;20232;-77
2023/12/20 09:11:17;;;;;;;9.43;2.90;;;5.70;99.90;;;;;;4990329;28;20741;-78
2023/12/20 09:13:45;;;;;;;14.77;4.07;;;5.80;99.90;;;;;;4997583;28;20251;-78
2023/12/20 09:16:12;;;;;;;12.07;2.83;;;5.70;99.90;;;;;;4994282;28;20233;-78
2023/12/20 09:18:39;;;;;;;11.33;2.67;;;5.70;99.90;;;;;;4978603;28;20237;-78
2023/12/20 09:21:06;;;;;;;8.30;2.13;;;5.70;99.90;;;;;;4970486;28;20242;-78
2023/12/20 09:23:32;;;;;;;8.67;2.53;;;5.70;99.90;;;;;;4991765;28;20318;-78
2023/12/20 09:25:59;;;;;;;9.60;2.67;;;5.60;99.90;;;;;;4985825;28;20230;-78
2023/12/20 09:28:26;;;;;;;10.77;2.73;;;5.60;99.90;;;;;;4988954;28;20235;-78
2023/12/20 09:30:54;;;;;;;10.57;2.77;;;5.50;99.90;;;;;;4980417;28;20224;-78
2023/12/20 09:33:21;;;;;;;11.10;2.27;;;5.50;99.90;;;;;;4987275;28;20608;-78
2023/12/20 09:35:48;;;;;;;8.07;2.30;;;5.50;99.90;;;;;;4986543;28;20704;-78
2023/12/20 09:38:15;;;;;;;10.07;2.67;;;5.40;99.90;;;;;;4987767;28;20229;-78
2023/12/20 09:40:43;;;;;;;6.60;1.93;;;5.40;99.90;;;;;;4990053;28;20308;-78
2023/12/20 09:43:12;;;;;;;4.47;1.73;;;5.30;99.90;;;;;;4981117;28;20234;-78
2023/12/20 09:45:41;;;;;;;5.90;1.47;;;5.30;99.90;;;;;;4985015;28;20227;-78
2023/12/20 09:48:14;;;;;;;7.73;1.97;;;5.30;99.90;;;;;;4977317;28;20242;-78
2023/12/20 09:50:41;;;;;;;6.83;1.50;;;5.30;99.90;;;;;;5003242;28;20319;-78
2023/12/20 09:53:10;;;;;;;2.90;1.10;;;5.30;99.90;;;;;;4979979;28;20255;-78
2023/12/20 09:55:38;;;;;;;3.13;0.90;;;5.20;99.90;;;;;;4988511;28;20234;-77
2023/12/20 09:58:06;;;;;;;3.00;0.90;;;5.20;99.90;;;;;;4975054;28;20237;-77
2023/12/20 10:00:33;;;;;;;3.70;1.00;;;5.30;99.90;;;;;;4979968;28;20251;-76
2023/12/20 10:03:01;;;;;;;2.37;1.00;;;5.30;99.90;;;;;;4989377;28;20237;-78
2023/12/20 10:05:31;;;;;;;3.10;0.70;;;5.30;99.90;;;;;;4987973;28;20596;-77
2023/12/20 10:07:57;;;;;;;2.93;0.77;;;5.30;99.90;;;;;;4998043;28;20267;-78
2023/12/20 10:10:24;;;;;;;2.70;0.73;;;5.30;99.90;;;;;;4974304;28;20239;-77
2023/12/20 10:13:05;;;;;;;3.10;0.70;;;5.20;99.90;;;;;;4969898;28;20229;-77
2023/12/20 10:15:33;;;;;;;3.67;0.80;;;5.20;99.90;;;;;;4985514;28;20226;-76
2023/12/20 10:18:01;;;;;;;1.83;0.70;;;5.20;99.90;;;;;;4969548;28;20718;-77
2023/12/20 10:20:29;;;;;;;6.73;1.10;;;5.10;99.90;;;;;;4969016;28;20716;-78
2023/12/20 10:22:56;;;;;;;3.50;0.70;;;5.10;99.90;;;;;;4968790;28;20728;-76
2023/12/20 10:25:23;;;;;;;3.60;0.73;;;5.10;99.90;;;;;;4968206;28;20701;-78
2023/12/20 10:27:51;;;;;;;5.67;0.93;;;5.00;99.90;;;;;;4969739;28;20228;-78
2023/12/20 10:30:18;;;;;;;3.53;0.73;;;5.00;99.90;;;;;;4984237;28;20261;-78
2023/12/20 10:32:44;;;;;;;3.47;0.80;;;5.00;99.90;;;;;;4969725;28;20229;-77
2023/12/20 10:35:11;;;;;;;4.50;1.13;;;5.00;99.90;;;;;;4975124;28;20253;-77
2023/12/20 10:37:39;;;;;;;2.30;0.77;;;5.00;99.90;;;;;;4989424;28;20768;-78
2023/12/20 10:40:07;;;;;;;2.90;0.67;;;5.00;99.90;;;;;;4989382;28;20704;-77
2023/12/20 10:42:35;;;;;;;3.03;0.77;;;5.00;99.90;;;;;;4988908;28;20596;-78
2023/12/20 10:45:02;;;;;;;3.77;0.90;;;5.10;99.90;;;;;;4988923;28;20223;-78
2023/12/20 10:47:31;;;;;;;4.80;1.20;;;5.10;99.90;;;;;;4987066;28;20742;-77
2023/12/20 10:50:01;;;;;;;5.70;1.10;;;5.20;99.90;;;;;;4984009;28;20245;-78
2023/12/20 10:52:30;;;;;;;4.37;1.37;;;5.20;99.90;;;;;;4969133;28;20232;-78
2023/12/20 10:54:58;;;;;;;6.73;0.93;;;5.20;99.90;;;;;;4969536;28;20228;-78
2023/12/20 10:57:27;;;;;;;4.40;0.80;;;5.20;99.90;;;;;;4969233;28;20254;-77
2023/12/20 10:59:55;;;;;;;3.80;1.10;;;5.20;99.90;;;;;;4969198;28;20258;-78
2023/12/20 11:02:23;;;;;;;2.80;0.87;;;5.20;99.90;;;;;;4977021;28;20241;-78
2023/12/20 11:04:56;;;;;;;3.77;0.90;;;5.20;99.90;;;;;;4993269;28;20233;-77
2023/12/20 11:07:26;;;;;;;6.60;2.20;;;5.20;99.90;;;;;;4980208;28;20246;-77
2023/12/20 11:10:01;;;;;;;7.63;1.40;;;5.20;99.90;;;;;;4988053;28;20231;-78
2023/12/20 11:12:38;;;;;;;5.40;1.33;;;5.20;99.90;;;;;;4987389;28;20235;-78
2023/12/20 11:15:07;;;;;;;5.57;1.33;;;5.20;99.90;;;;;;4986629;28;20253;-78
2023/12/20 11:17:34;;;;;;;5.57;1.57;;;5.20;99.90;;;;;;5000006;28;20227;-77
2023/12/20 11:20:13;;;;;;;4.40;1.30;;;5.20;99.90;;;;;;4985251;28;20767;-78
2023/12/20 11:22:52;;;;;;;5.33;1.37;;;5.20;99.90;;;;;;4981574;28;20226;-78
2023/12/20 11:25:20;;;;;;;5.07;1.30;;;5.20;99.90;;;;;;4981667;28;20603;-78
2023/12/20 11:28:08;;;;;;;6.20;1.43;;;5.10;99.90;;;;;;4985544;28;20242;-78
2023/12/20 11:30:42;;;;;;;5.80;1.23;;;5.00;99.90;;;;;;4981632;28;20226;-78
2023/12/20 11:33:09;;;;;;;6.73;1.20;;;5.00;99.90;;;;;;4986150;28;20610;-77
2023/12/20 11:35:36;;;;;;;6.50;1.67;;;4.90;99.90;;;;;;4991754;28;20240;-78
2023/12/20 11:38:04;;;;;;;6.00;1.10;;;4.80;99.90;;;;;;4986695;28;20807;-77
2023/12/20 11:40:35;;;;;;;6.63;1.50;;;4.80;99.90;;;;;;4989940;28;20576;-78
2023/12/20 11:43:02;;;;;;;5.67;1.30;;;4.70;99.90;;;;;;4985090;28;20657;-78
2023/12/20 11:45:29;;;;;;;3.20;1.03;;;4.60;99.90;;;;;;4983373;28;20304;-78
2023/12/20 11:47:57;;;;;;;2.27;1.03;;;4.60;99.90;;;;;;4985168;28;20237;-79
2023/12/20 11:50:25;;;;;;;7.37;1.17;;;4.50;99.90;;;;;;4985004;28;20648;-78
2023/12/20 11:52:53;;;;;;;2.93;0.80;;;4.50;99.90;;;;;;4991165;28;20234;-78
2023/12/20 11:55:20;;;;;;;4.57;1.70;;;4.40;99.90;;;;;;4991722;28;20733;-77
2023/12/20 11:57:48;;;;;;;2.73;0.90;;;4.50;99.90;;;;;;4989903;28;20238;-76
2023/12/20 12:00:16;;;;;;;4.47;1.03;;;4.50;99.90;;;;;;4972288;28;20233;-78
2023/12/20 12:02:42;;;;;;;5.30;1.20;;;4.50;99.90;;;;;;4972222;28;20240;-77
2023/12/20 12:05:09;;;;;;;4.97;1.63;;;4.60;99.90;;;;;;4984727;28;20237;-77
2023/12/20 12:07:36;;;;;;;6.17;1.53;;;4.50;99.90;;;;;;4991611;28;20235;-78
2023/12/20 12:10:04;;;;;;;5.07;1.53;;;4.60;99.90;;;;;;4992257;28;20241;-78
2023/12/20 12:12:32;;;;;;;6.27;2.10;;;4.60;99.90;;;;;;4983676;28;20238;-77
2023/12/20 12:15:00;;;;;;;7.67;2.10;;;4.70;99.90;;;;;;4972359;28;20235;-77
2023/12/20 12:17:27;;;;;;;10.43;2.10;;;4.70;99.90;;;;;;4970903;28;20235;-77
2023/12/20 12:20:04;;;;;;;11.47;2.40;;;4.80;99.90;;;;;;4988989;28;20304;-77
2023/12/20 12:22:30;;;;;;;8.27;2.30;;;4.80;99.90;;;;;;4991454;28;20228;-77
2023/12/20 12:25:00;;;;;;;10.20;2.50;;;4.80;99.90;;;;;;4992115;28;20229;-76
2023/12/20 12:27:28;;;;;;;7.23;2.00;;;4.90;99.90;;;;;;4983843;28;20240;-77
2023/12/20 12:30:03;;;;;;;11.27;2.00;;;4.90;99.90;;;;;;4972164;28;20233;-78
2023/12/20 12:32:30;;;;;;;11.47;2.40;;;5.00;99.90;;;;;;4986179;28;20232;-77
2023/12/20 12:34:57;;;;;;;9.60;2.07;;;5.00;99.90;;;;;;4983221;28;20226;-78
2023/12/20 12:37:24;;;;;;;12.90;2.43;;;5.00;99.90;;;;;;4990841;28;20241;-77
2023/12/20 12:39:53;;;;;;;7.90;2.30;;;5.00;99.90;;;;;;5006955;28;20233;-78
2023/12/20 12:42:21;;;;;;;10.90;2.20;;;5.10;99.90;;;;;;5005498;28;20304;-77
2023/12/20 12:44:48;;;;;;;10.20;2.57;;;5.20;99.90;;;;;;4979970;28;20242;-78
2023/12/20 12:47:16;;;;;;;12.37;2.80;;;5.30;99.90;;;;;;4969176;28;20232;-77
2023/12/20 12:49:42;;;;;;;8.90;2.50;;;5.40;99.90;;;;;;4971654;28;20234;-77
2023/12/20 12:52:09;;;;;;;9.47;2.70;;;5.50;99.90;;;;;;4969607;28;20238;-78